KQPB

2019-01-20 20:00:06Z

Plaintext report →

Temperature
High0.0 °C32.0 °F
Current0.0 °C32.0 °F
Low0.0 °C32.0 °F
Feels LikeUnavailable
Dewpoint0.0 °C32.0 °F
Winds
Speed and Direction3.0 m/s6.7 mi/h 5 kn339 °
Gust7.4 m/s16.55 mi/h14 kn
SquallUnavailable
Pressure and Humidity
Pressure At Field Level1020.4 mb30.1 in
Pressure At Sea Level0.0 mb0.0 in
Pressure Trend-0.2 mb-0.0 in
Pressure Tendency 7
HumidityUnavailable

Station Alarms & Warnings:

Ceilometer Alarms / Warnings:

Ceilometer Data Missing!
Historical Weather Phenomenon Graphs

Additional Information:

  METAR KQPB 202000Z AUTO 34005G14KT NCD 00/00 A3013 RMK AO2 SLPNO 10000
  20000 57002 PWINO $=    
Cloud Cover
Layer 1 Undetected
Layer 2 Undetected
Layer 3 Undetected
Winds
2-minute Winds
Minimum1.4 m/s3.13 mi/h 2 kn282 °
Average3.0 m/s6.71 mi/h 5 kn305 °
Maximum5.3 m/s11.86 mi/h10 kn 2 °
10-minute Winds
Minimum1.4 m/s3.13 mi/h 2 kn272 °
Average4.1 m/s9.17 mi/h 7 kn302 °
Maximum7.4 m/s16.55 mi/h14 kn 2 °
Precipitation
IntensityUnavailable
Rainfall
1-hour Total0.00 mm0.00 in
3-hour Total0.00 mm0.00 in
6-hour Total0.00 mm0.00 in
24-hour Total0.00 mm0.00 in
Precipitation
1-hour TotalUnavailable
3-hour TotalUnavailable
6-hour TotalUnavailable
24-hour TotalUnavailable
Snowfall
1-hour TotalUnavailable
3-hour TotalUnavailable
6-hour TotalUnavailable
24-hour TotalUnavailable